sensor_id;sensor_type;location;lat;lon;timestamp;pressure;altitude;pressure_sealevel;temperature;humidity
38054;BME280;23859;50.672;7.164;2022-12-31T00:00:12;99779.91;;;15.04;99.43
38054;BME280;23859;50.672;7.164;2022-12-31T00:02:38;99768.13;;;15.13;99.27
38054;BME280;23859;50.672;7.164;2022-12-31T00:05:04;99785.00;;;15.13;99.30
38054;BME280;23859;50.672;7.164;2022-12-31T00:07:34;99793.97;;;15.20;99.01
38054;BME280;23859;50.672;7.164;2022-12-31T00:10:01;99797.22;;;15.30;99.24
38054;BME280;23859;50.672;7.164;2022-12-31T00:12:27;99793.88;;;15.28;99.21
38054;BME280;23859;50.672;7.164;2022-12-31T00:14:53;99790.84;;;15.31;99.06
38054;BME280;23859;50.672;7.164;2022-12-31T00:17:19;99794.53;;;15.30;99.02
38054;BME280;23859;50.672;7.164;2022-12-31T00:19:45;99789.75;;;15.61;97.76
38054;BME280;23859;50.672;7.164;2022-12-31T00:22:11;99773.16;;;15.51;97.68
38054;BME280;23859;50.672;7.164;2022-12-31T00:24:37;99784.66;;;15.66;97.08
38054;BME280;23859;50.672;7.164;2022-12-31T00:27:03;99788.59;;;15.49;97.82
38054;BME280;23859;50.672;7.164;2022-12-31T00:29:29;99785.91;;;15.49;98.71
38054;BME280;23859;50.672;7.164;2022-12-31T00:31:55;99794.13;;;15.47;98.43
38054;BME280;23859;50.672;7.164;2022-12-31T00:34:21;99784.34;;;15.54;98.35
38054;BME280;23859;50.672;7.164;2022-12-31T00:36:47;99783.94;;;15.57;97.90
38054;BME280;23859;50.672;7.164;2022-12-31T00:39:13;99791.72;;;15.52;98.56
38054;BME280;23859;50.672;7.164;2022-12-31T00:41:40;99773.84;;;15.74;97.08
38054;BME280;23859;50.672;7.164;2022-12-31T00:44:12;99792.38;;;15.90;95.85
38054;BME280;23859;50.672;7.164;2022-12-31T00:46:38;99789.25;;;15.86;96.05
38054;BME280;23859;50.672;7.164;2022-12-31T00:49:05;99791.13;;;16.06;95.58
38054;BME280;23859;50.672;7.164;2022-12-31T00:51:31;99795.69;;;15.92;95.28
38054;BME280;23859;50.672;7.164;2022-12-31T00:53:57;99797.97;;;15.74;96.73
38054;BME280;23859;50.672;7.164;2022-12-31T00:56:26;99776.91;;;15.71;97.01
38054;BME280;23859;50.672;7.164;2022-12-31T00:58:53;99781.47;;;15.56;98.02
38054;BME280;23859;50.672;7.164;2022-12-31T01:01:33;99793.94;;;15.49;99.00
38054;BME280;23859;50.672;7.164;2022-12-31T01:04:09;99788.31;;;15.44;100.00
38054;BME280;23859;50.672;7.164;2022-12-31T01:06:35;99782.44;;;15.34;100.00
38054;BME280;23859;50.672;7.164;2022-12-31T01:09:03;99786.56;;;15.51;99.73
38054;BME280;23859;50.672;7.164;2022-12-31T01:11:29;99775.56;;;15.60;99.25
38054;BME280;23859;50.672;7.164;2022-12-31T01:16:26;99791.41;;;15.76;98.11
38054;BME280;23859;50.672;7.164;2022-12-31T01:18:53;99784.44;;;15.82;98.01
38054;BME280;23859;50.672;7.164;2022-12-31T01:21:20;99790.72;;;15.89;97.82
38054;BME280;23859;50.672;7.164;2022-12-31T01:23:46;99804.13;;;16.09;96.62
38054;BME280;23859;50.672;7.164;2022-12-31T01:26:14;99785.34;;;16.09;96.47
38054;BME280;23859;50.672;7.164;2022-12-31T01:28:41;99799.03;;;16.14;96.34
38054;BME280;23859;50.672;7.164;2022-12-31T01:31:12;99804.00;;;16.17;96.31
38054;BME280;23859;50.672;7.164;2022-12-31T01:33:39;99806.00;;;16.09;96.69
38054;BME280;23859;50.672;7.164;2022-12-31T01:36:15;99803.09;;;16.10;97.05
38054;BME280;23859;50.672;7.164;2022-12-31T01:38:42;99808.63;;;16.23;95.95
38054;BME280;23859;50.672;7.164;2022-12-31T01:41:13;99810.50;;;16.08;96.68
38054;BME280;23859;50.672;7.164;2022-12-31T01:43:58;99811.16;;;16.10;96.82
38054;BME280;23859;50.672;7.164;2022-12-31T01:46:44;99811.41;;;16.15;96.63
38054;BME280;23859;50.672;7.164;2022-12-31T01:49:21;99806.63;;;16.32;95.65
38054;BME280;23859;50.672;7.164;2022-12-31T01:51:52;99808.75;;;16.36;94.84
38054;BME280;23859;50.672;7.164;2022-12-31T01:54:21;99811.28;;;16.23;95.47
38054;BME280;23859;50.672;7.164;2022-12-31T01:56:48;99827.94;;;16.33;94.87
38054;BME280;23859;50.672;7.164;2022-12-31T01:59:16;99830.22;;;16.36;94.66
38054;BME280;23859;50.672;7.164;2022-12-31T02:01:44;99825.06;;;16.20;95.47
38054;BME280;23859;50.672;7.164;2022-12-31T02:04:13;99829.78;;;16.18;95.62
38054;BME280;23859;50.672;7.164;2022-12-31T02:07:03;99829.41;;;16.21;94.96
38054;BME280;23859;50.672;7.164;2022-12-31T02:09:30;99837.06;;;16.24;94.73
38054;BME280;23859;50.672;7.164;2022-12-31T02:11:57;99829.75;;;16.33;94.56
38054;BME280;23859;50.672;7.164;2022-12-31T02:14:30;99811.84;;;16.33;94.10
38054;BME280;23859;50.672;7.164;2022-12-31T02:17:37;99828.94;;;16.32;93.80
38054;BME280;23859;50.672;7.164;2022-12-31T02:30:19;99808.81;;;16.43;91.61
38054;BME280;23859;50.672;7.164;2022-12-31T02:35:42;99811.56;;;16.49;91.57
38054;BME280;23859;50.672;7.164;2022-12-31T02:38:17;99819.47;;;16.36;92.17
38054;BME280;23859;50.672;7.164;2022-12-31T02:40:45;99829.84;;;16.39;92.24
38054;BME280;23859;50.672;7.164;2022-12-31T02:43:12;99832.69;;;16.38;92.78
38054;BME280;23859;50.672;7.164;2022-12-31T02:45:42;99837.00;;;16.32;93.23
38054;BME280;23859;50.672;7.164;2022-12-31T02:51:16;99845.03;;;16.53;92.04
38054;BME280;23859;50.672;7.164;2022-12-31T02:56:26;99835.97;;;16.54;91.90
38054;BME280;23859;50.672;7.164;2022-12-31T02:59:08;99841.31;;;16.54;91.53
38054;BME280;23859;50.672;7.164;2022-12-31T03:02:07;99839.50;;;16.61;91.45
38054;BME280;23859;50.672;7.164;2022-12-31T03:04:40;99851.41;;;16.52;92.06
38054;BME280;23859;50.672;7.164;2022-12-31T03:07:10;99855.50;;;16.48;92.27
38054;BME280;23859;50.672;7.164;2022-12-31T03:09:37;99845.13;;;16.45;92.71
38054;BME280;23859;50.672;7.164;2022-12-31T03:12:05;99851.41;;;16.52;92.06
38054;BME280;23859;50.672;7.164;2022-12-31T03:15:08;99856.41;;;16.55;92.38
38054;BME280;23859;50.672;7.164;2022-12-31T03:18:10;99857.94;;;16.43;92.69
38054;BME280;23859;50.672;7.164;2022-12-31T03:20:41;99847.16;;;16.37;93.75
38054;BME280;23859;50.672;7.164;2022-12-31T03:23:30;99848.34;;;16.34;93.99
38054;BME280;23859;50.672;7.164;2022-12-31T03:25:57;99862.41;;;16.36;93.61
38054;BME280;23859;50.672;7.164;2022-12-31T03:28:26;99867.41;;;16.39;93.73
38054;BME280;23859;50.672;7.164;2022-12-31T03:30:58;99859.22;;;16.47;92.91
38054;BME280;23859;50.672;7.164;2022-12-31T03:33:26;99846.94;;;16.38;93.16
38054;BME280;23859;50.672;7.164;2022-12-31T03:35:54;99869.53;;;16.29;94.08
38054;BME280;23859;50.672;7.164;2022-12-31T03:38:20;99864.06;;;16.37;93.29
38054;BME280;23859;50.672;7.164;2022-12-31T03:40:49;99861.63;;;16.42;93.05
38054;BME280;23859;50.672;7.164;2022-12-31T03:43:17;99873.56;;;16.40;92.97
38054;BME280;23859;50.672;7.164;2022-12-31T03:45:46;99881.31;;;16.28;94.04
38054;BME280;23859;50.672;7.164;2022-12-31T03:48:13;99874.78;;;16.37;93.22
38054;BME280;23859;50.672;7.164;2022-12-31T03:50:39;99873.13;;;16.36;93.79
38054;BME280;23859;50.672;7.164;2022-12-31T03:53:05;99874.94;;;16.50;92.60
38054;BME280;23859;50.672;7.164;2022-12-31T03:55:31;99902.53;;;16.44;93.38
38054;BME280;23859;50.672;7.164;2022-12-31T03:57:57;99889.22;;;16.36;93.71
38054;BME280;23859;50.672;7.164;2022-12-31T04:00:23;99888.47;;;16.42;93.78
38054;BME280;23859;50.672;7.164;2022-12-31T04:02:50;99874.41;;;16.40;93.71
38054;BME280;23859;50.672;7.164;2022-12-31T04:05:17;99875.34;;;16.54;93.00
38054;BME280;23859;50.672;7.164;2022-12-31T04:07:43;99864.97;;;16.44;93.72
38054;BME280;23859;50.672;7.164;2022-12-31T04:10:11;99862.41;;;16.36;94.64
38054;BME280;23859;50.672;7.164;2022-12-31T04:12:38;99854.50;;;16.28;94.90
38054;BME280;23859;50.672;7.164;2022-12-31T04:15:05;99847.06;;;16.30;94.86
38054;BME280;23859;50.672;7.164;2022-12-31T04:17:31;99852.25;;;16.53;92.40
38054;BME280;23859;50.672;7.164;2022-12-31T04:19:57;99852.13;;;16.40;93.36
38054;BME280;23859;50.672;7.164;2022-12-31T04:22:24;99849.94;;;16.50;92.52
38054;BME280;23859;50.672;7.164;2022-12-31T04:24:50;99848.66;;;16.46;92.77
38054;BME280;23859;50.672;7.164;2022-12-31T04:27:16;99858.13;;;16.42;92.87
38054;BME280;23859;50.672;7.164;2022-12-31T04:29:42;99858.81;;;16.29;93.46
38054;BME280;23859;50.672;7.164;2022-12-31T04:32:08;99861.94;;;16.33;93.53
38054;BME280;23859;50.672;7.164;2022-12-31T04:34:35;99858.31;;;16.40;92.90
38054;BME280;23859;50.672;7.164;2022-12-31T04:37:01;99876.47;;;16.38;93.24
38054;BME280;23859;50.672;7.164;2022-12-31T04:39:27;99869.94;;;16.47;92.80
38054;BME280;23859;50.672;7.164;2022-12-31T04:41:54;99862.66;;;16.41;92.95
38054;BME280;23859;50.672;7.164;2022-12-31T04:44:20;99882.06;;;16.64;91.42
38054;BME280;23859;50.672;7.164;2022-12-31T04:46:46;99877.28;;;16.60;91.76
38054;BME280;23859;50.672;7.164;2022-12-31T04:49:13;99889.09;;;16.65;91.30
38054;BME280;23859;50.672;7.164;2022-12-31T04:51:39;99882.72;;;16.66;91.11
38054;BME280;23859;50.672;7.164;2022-12-31T04:54:05;99883.16;;;16.49;92.09
38054;BME280;23859;50.672;7.164;2022-12-31T04:56:31;99882.44;;;16.61;91.50
38054;BME280;23859;50.672;7.164;2022-12-31T04:58:58;99896.13;;;16.66;90.34
38054;BME280;23859;50.672;7.164;2022-12-31T05:01:24;99894.84;;;16.62;90.38
38054;BME280;23859;50.672;7.164;2022-12-31T05:03:50;99911.03;;;16.68;90.19
38054;BME280;23859;50.672;7.164;2022-12-31T05:07:03;99906.22;;;16.64;90.30
38054;BME280;23859;50.672;7.164;2022-12-31T05:09:22;99918.38;;;16.60;90.22
38054;BME280;23859;50.672;7.164;2022-12-31T05:11:49;99910.56;;;16.65;89.78
38054;BME280;23859;50.672;7.164;2022-12-31T05:14:15;99914.28;;;16.64;89.82
38054;BME280;23859;50.672;7.164;2022-12-31T05:16:42;99934.72;;;16.86;88.25
38054;BME280;23859;50.672;7.164;2022-12-31T05:19:08;99940.19;;;16.99;87.39
38054;BME280;23859;50.672;7.164;2022-12-31T05:21:34;99916.25;;;17.25;85.52
38054;BME280;23859;50.672;7.164;2022-12-31T05:24:00;99925.59;;;17.29;85.96
38054;BME280;23859;50.672;7.164;2022-12-31T05:26:26;99918.88;;;17.18;86.06
38054;BME280;23859;50.672;7.164;2022-12-31T05:28:52;99923.03;;;17.21;85.94
38054;BME280;23859;50.672;7.164;2022-12-31T05:31:20;99939.66;;;17.31;85.14
38054;BME280;23859;50.672;7.164;2022-12-31T05:33:46;99929.31;;;17.28;85.40
38054;BME280;23859;50.672;7.164;2022-12-31T05:36:12;99941.78;;;17.14;85.99
38054;BME280;23859;50.672;7.164;2022-12-31T05:38:39;99935.00;;;17.18;85.69
38054;BME280;23859;50.672;7.164;2022-12-31T05:41:06;99922.34;;;17.12;86.14
38054;BME280;23859;50.672;7.164;2022-12-31T05:43:33;99934.22;;;17.24;84.85
38054;BME280;23859;50.672;7.164;2022-12-31T05:46:01;99946.69;;;17.32;85.08
38054;BME280;23859;50.672;7.164;2022-12-31T05:48:27;99938.28;;;17.14;85.50
38054;BME280;23859;50.672;7.164;2022-12-31T05:50:53;99958.22;;;17.26;84.77
38054;BME280;23859;50.672;7.164;2022-12-31T05:53:19;99944.13;;;17.24;84.68
38054;BME280;23859;50.672;7.164;2022-12-31T05:55:46;99952.84;;;17.26;84.87
38054;BME280;23859;50.672;7.164;2022-12-31T05:58:14;99949.88;;;17.21;85.01
38054;BME280;23859;50.672;7.164;2022-12-31T06:00:41;99951.31;;;17.17;85.57
38054;BME280;23859;50.672;7.164;2022-12-31T06:03:07;99934.00;;;16.98;87.05
38054;BME280;23859;50.672;7.164;2022-12-31T06:05:33;99957.97;;;17.00;87.08
38054;BME280;23859;50.672;7.164;2022-12-31T06:07:59;99953.53;;;17.13;86.26
38054;BME280;23859;50.672;7.164;2022-12-31T06:10:25;99960.91;;;17.05;86.98
38054;BME280;23859;50.672;7.164;2022-12-31T06:12:51;99966.41;;;17.18;86.07
38054;BME280;23859;50.672;7.164;2022-12-31T06:15:17;99974.78;;;17.08;86.21
38054;BME280;23859;50.672;7.164;2022-12-31T06:17:43;99986.78;;;17.12;85.72
38054;BME280;23859;50.672;7.164;2022-12-31T06:20:09;99990.31;;;17.13;86.06
38054;BME280;23859;50.672;7.164;2022-12-31T06:22:35;99991.75;;;17.09;86.46
38054;BME280;23859;50.672;7.164;2022-12-31T06:25:01;99990.63;;;17.03;86.34
38054;BME280;23859;50.672;7.164;2022-12-31T06:27:27;99993.25;;;17.18;85.62
38054;BME280;23859;50.672;7.164;2022-12-31T06:29:53;99991.66;;;17.02;86.57
38054;BME280;23859;50.672;7.164;2022-12-31T06:32:19;99999.59;;;17.10;86.28
38054;BME280;23859;50.672;7.164;2022-12-31T06:34:45;100004.91;;;17.25;85.25
38054;BME280;23859;50.672;7.164;2022-12-31T06:37:11;100010.56;;;17.30;84.91
38054;BME280;23859;50.672;7.164;2022-12-31T06:39:37;100012.47;;;17.36;84.56
38054;BME280;23859;50.672;7.164;2022-12-31T06:42:04;100007.91;;;17.36;84.85
38054;BME280;23859;50.672;7.164;2022-12-31T06:44:30;100018.34;;;17.45;84.42
38054;BME280;23859;50.672;7.164;2022-12-31T06:46:56;100036.50;;;17.43;84.05
38054;BME280;23859;50.672;7.164;2022-12-31T06:49:22;100026.25;;;17.53;83.80
38054;BME280;23859;50.672;7.164;2022-12-31T06:51:48;100029.47;;;17.42;84.29
38054;BME280;23859;50.672;7.164;2022-12-31T06:54:14;100048.50;;;17.47;84.28
38054;BME280;23859;50.672;7.164;2022-12-31T06:56:41;100034.72;;;17.50;83.97
38054;BME280;23859;50.672;7.164;2022-12-31T06:59:22;100042.13;;;17.48;83.65
38054;BME280;23859;50.672;7.164;2022-12-31T07:01:57;100035.72;;;17.49;83.21
38054;BME280;23859;50.672;7.164;2022-12-31T07:04:43;100036.19;;;17.53;82.84
38054;BME280;23859;50.672;7.164;2022-12-31T07:15:35;100046.06;;;17.52;83.29
38054;BME280;23859;50.672;7.164;2022-12-31T07:20:43;100047.22;;;17.64;82.05
38054;BME280;23859;50.672;7.164;2022-12-31T07:23:09;100046.16;;;17.59;81.95
38054;BME280;23859;50.672;7.164;2022-12-31T07:25:36;100049.81;;;17.51;82.48
38054;BME280;23859;50.672;7.164;2022-12-31T07:28:15;100048.75;;;17.52;82.52
38054;BME280;23859;50.672;7.164;2022-12-31T07:37:03;100051.97;;;17.62;81.70
38054;BME280;23859;50.672;7.164;2022-12-31T07:40:14;100054.38;;;17.57;81.85
38054;BME280;23859;50.672;7.164;2022-12-31T07:45:37;100061.91;;;17.68;81.52
38054;BME280;23859;50.672;7.164;2022-12-31T07:48:26;100060.22;;;17.61;81.87
38054;BME280;23859;50.672;7.164;2022-12-31T07:50:54;100071.56;;;17.56;81.67
38054;BME280;23859;50.672;7.164;2022-12-31T07:53:22;100073.66;;;17.61;81.42
38054;BME280;23859;50.672;7.164;2022-12-31T07:55:53;100081.47;;;17.56;81.39
38054;BME280;23859;50.672;7.164;2022-12-31T08:00:56;100078.84;;;17.62;81.22
38054;BME280;23859;50.672;7.164;2022-12-31T08:06:11;100073.06;;;17.65;80.03
38054;BME280;23859;50.672;7.164;2022-12-31T08:11:42;100095.19;;;17.88;79.02
38054;BME280;23859;50.672;7.164;2022-12-31T08:14:13;100095.97;;;17.82;79.24
38054;BME280;23859;50.672;7.164;2022-12-31T08:16:40;100092.00;;;17.78;79.18
38054;BME280;23859;50.672;7.164;2022-12-31T08:19:07;100082.59;;;17.68;79.63
38054;BME280;23859;50.672;7.164;2022-12-31T08:27:09;100123.09;;;17.87;78.84
38054;BME280;23859;50.672;7.164;2022-12-31T08:32:31;100117.03;;;18.06;77.27
38054;BME280;23859;50.672;7.164;2022-12-31T08:37:41;100106.81;;;17.95;77.71
38054;BME280;23859;50.672;7.164;2022-12-31T08:40:24;100098.44;;;18.11;77.28
38054;BME280;23859;50.672;7.164;2022-12-31T08:43:32;100113.97;;;18.09;77.71
38054;BME280;23859;50.672;7.164;2022-12-31T08:46:03;100127.53;;;18.01;78.42
38054;BME280;23859;50.672;7.164;2022-12-31T08:48:39;100136.22;;;17.97;78.53
38054;BME280;23859;50.672;7.164;2022-12-31T08:51:13;100135.81;;;18.00;78.62
38054;BME280;23859;50.672;7.164;2022-12-31T08:53:40;100127.72;;;17.93;78.29
38054;BME280;23859;50.672;7.164;2022-12-31T08:56:26;100145.25;;;17.89;78.81
38054;BME280;23859;50.672;7.164;2022-12-31T09:04:45;100132.09;;;18.01;78.29
38054;BME280;23859;50.672;7.164;2022-12-31T09:07:16;100124.28;;;18.05;78.72
38054;BME280;23859;50.672;7.164;2022-12-31T09:12:46;100133.75;;;18.22;77.92
38054;BME280;23859;50.672;7.164;2022-12-31T09:15:25;100139.16;;;18.29;77.93
38054;BME280;23859;50.672;7.164;2022-12-31T09:17:55;100142.03;;;18.21;77.84
38054;BME280;23859;50.672;7.164;2022-12-31T09:20:29;100142.03;;;18.21;78.07
38054;BME280;23859;50.672;7.164;2022-12-31T09:22:57;100141.88;;;18.29;77.23
38054;BME280;23859;50.672;7.164;2022-12-31T09:25:25;100137.38;;;18.36;77.29
38054;BME280;23859;50.672;7.164;2022-12-31T09:28:19;100149.81;;;18.37;77.73
38054;BME280;23859;50.672;7.164;2022-12-31T09:30:56;100152.09;;;18.40;77.45
38054;BME280;23859;50.672;7.164;2022-12-31T09:33:50;100158.34;;;18.47;76.23
38054;BME280;23859;50.672;7.164;2022-12-31T09:36:29;100154.31;;;18.64;75.61
38054;BME280;23859;50.672;7.164;2022-12-31T09:42:33;100164.69;;;18.67;75.03
38054;BME280;23859;50.672;7.164;2022-12-31T09:50:28;100187.00;;;18.94;74.43
38054;BME280;23859;50.672;7.164;2022-12-31T09:56:03;100179.59;;;19.03;72.89
38054;BME280;23859;50.672;7.164;2022-12-31T10:01:31;100204.31;;;19.13;73.02
38054;BME280;23859;50.672;7.164;2022-12-31T10:09:35;100222.75;;;19.09;72.57
38054;BME280;23859;50.672;7.164;2022-12-31T10:23:58;100240.25;;;19.26;71.21
38054;BME280;23859;50.672;7.164;2022-12-31T10:26:36;100236.47;;;19.21;70.84
38054;BME280;23859;50.672;7.164;2022-12-31T10:32:06;100231.69;;;19.16;71.52
38054;BME280;23859;50.672;7.164;2022-12-31T10:36:07;100227.75;;;19.12;72.67
38054;BME280;23859;50.672;7.164;2022-12-31T10:41:48;100250.13;;;19.13;71.75
38054;BME280;23859;50.672;7.164;2022-12-31T10:49:50;100246.63;;;19.12;72.29
38054;BME280;23859;50.672;7.164;2022-12-31T11:01:30;100256.19;;;18.94;72.35
38054;BME280;23859;50.672;7.164;2022-12-31T11:04:34;100262.81;;;18.91;72.43
38054;BME280;23859;50.672;7.164;2022-12-31T11:09:58;100275.13;;;19.00;72.48
38054;BME280;23859;50.672;7.164;2022-12-31T11:18:16;100269.19;;;19.11;71.60
38054;BME280;23859;50.672;7.164;2022-12-31T11:37:49;100275.03;;;19.15;71.55
38054;BME280;23859;50.672;7.164;2022-12-31T11:40:38;100273.97;;;19.56;69.43
38054;BME280;23859;50.672;7.164;2022-12-31T11:43:21;100267.41;;;19.78;68.52
38054;BME280;23859;50.672;7.164;2022-12-31T11:54:56;100239.13;;;19.08;71.03
38054;BME280;23859;50.672;7.164;2022-12-31T11:59:59;100241.25;;;18.91;71.47
38054;BME280;23859;50.672;7.164;2022-12-31T12:02:32;100248.50;;;18.84;71.79
38054;BME280;23859;50.672;7.164;2022-12-31T12:05:00;100251.41;;;18.89;71.79
38054;BME280;23859;50.672;7.164;2022-12-31T12:07:29;100247.94;;;18.95;71.23
38054;BME280;23859;50.672;7.164;2022-12-31T12:09:58;100245.47;;;19.00;71.05
38054;BME280;23859;50.672;7.164;2022-12-31T12:12:40;100238.53;;;19.12;70.52
38054;BME280;23859;50.672;7.164;2022-12-31T12:15:09;100236.22;;;19.09;70.40
38054;BME280;23859;50.672;7.164;2022-12-31T12:17:35;100248.31;;;18.92;71.11
38054;BME280;23859;50.672;7.164;2022-12-31T12:20:13;100234.72;;;19.07;71.06
38054;BME280;23859;50.672;7.164;2022-12-31T12:22:49;100236.28;;;18.88;71.49
38054;BME280;23859;50.672;7.164;2022-12-31T12:25:18;100233.81;;;18.93;71.30
38054;BME280;23859;50.672;7.164;2022-12-31T12:27:45;100232.81;;;19.01;71.14
38054;BME280;23859;50.672;7.164;2022-12-31T12:30:20;100212.41;;;19.13;70.17
38054;BME280;23859;50.672;7.164;2022-12-31T12:35:39;100209.81;;;18.98;71.45
38054;BME280;23859;50.672;7.164;2022-12-31T12:38:14;100201.44;;;19.21;70.51
38054;BME280;23859;50.672;7.164;2022-12-31T12:40:40;100209.78;;;19.26;69.64
38054;BME280;23859;50.672;7.164;2022-12-31T12:43:21;100200.47;;;19.35;69.18
38054;BME280;23859;50.672;7.164;2022-12-31T12:45:48;100200.06;;;19.38;69.02
38054;BME280;23859;50.672;7.164;2022-12-31T12:48:21;100199.91;;;19.52;68.44
38054;BME280;23859;50.672;7.164;2022-12-31T12:50:49;100204.75;;;19.76;67.14
38054;BME280;23859;50.672;7.164;2022-12-31T12:56:30;100230.03;;;19.75;67.44
38054;BME280;23859;50.672;7.164;2022-12-31T13:05:18;100247.63;;;19.51;68.93
38054;BME280;23859;50.672;7.164;2022-12-31T13:08:02;100249.44;;;19.38;68.57
38054;BME280;23859;50.672;7.164;2022-12-31T13:16:22;100242.06;;;19.66;66.89
38054;BME280;23859;50.672;7.164;2022-12-31T13:19:14;100237.50;;;19.73;67.20
38054;BME280;23859;50.672;7.164;2022-12-31T13:22:03;100235.44;;;19.88;66.43
38054;BME280;23859;50.672;7.164;2022-12-31T13:27:38;100244.56;;;19.74;66.13
38054;BME280;23859;50.672;7.164;2022-12-31T13:30:12;100247.88;;;19.69;66.09
38054;BME280;23859;50.672;7.164;2022-12-31T13:32:43;100260.31;;;19.70;66.16
38054;BME280;23859;50.672;7.164;2022-12-31T13:35:30;100268.09;;;19.39;67.62
38054;BME280;23859;50.672;7.164;2022-12-31T13:38:02;100250.38;;;19.71;67.28
38054;BME280;23859;50.672;7.164;2022-12-31T13:40:38;100240.84;;;19.75;66.09
38054;BME280;23859;50.672;7.164;2022-12-31T13:46:11;100258.41;;;19.11;70.28
38054;BME280;23859;50.672;7.164;2022-12-31T13:48:49;100256.03;;;18.95;71.61
38054;BME280;23859;50.672;7.164;2022-12-31T13:51:39;100243.66;;;18.73;73.08
38054;BME280;23859;50.672;7.164;2022-12-31T13:56:45;100235.59;;;18.80;71.53
38054;BME280;23859;50.672;7.164;2022-12-31T13:59:28;100231.09;;;18.87;72.19
38054;BME280;23859;50.672;7.164;2022-12-31T14:04:44;100236.28;;;18.88;70.83
38054;BME280;23859;50.672;7.164;2022-12-31T14:07:25;100247.88;;;18.89;70.99
38054;BME280;23859;50.672;7.164;2022-12-31T14:09:54;100236.06;;;18.90;70.60
38054;BME280;23859;50.672;7.164;2022-12-31T14:12:49;100231.38;;;18.98;70.41
38054;BME280;23859;50.672;7.164;2022-12-31T14:15:37;100236.78;;;19.05;70.41
38054;BME280;23859;50.672;7.164;2022-12-31T14:18:22;100237.63;;;19.05;69.77
38054;BME280;23859;50.672;7.164;2022-12-31T14:21:02;100240.41;;;18.84;69.80
38054;BME280;23859;50.672;7.164;2022-12-31T14:23:46;100245.25;;;18.95;69.89
38054;BME280;23859;50.672;7.164;2022-12-31T14:26:22;100232.16;;;18.92;69.95
38054;BME280;23859;50.672;7.164;2022-12-31T14:42:31;100246.41;;;18.53;70.34
38054;BME280;23859;50.672;7.164;2022-12-31T14:48:08;100237.63;;;18.44;69.76
38054;BME280;23859;50.672;7.164;2022-12-31T14:50:36;100222.78;;;18.27;71.00
38054;BME280;23859;50.672;7.164;2022-12-31T14:55:30;100228.38;;;18.26;70.73
38054;BME280;23859;50.672;7.164;2022-12-31T14:57:59;100222.91;;;18.19;70.63
38054;BME280;23859;50.672;7.164;2022-12-31T15:00:34;100231.44;;;18.02;71.63
38054;BME280;23859;50.672;7.164;2022-12-31T15:14:39;100250.19;;;17.75;72.93
38054;BME280;23859;50.672;7.164;2022-12-31T15:22:51;100254.59;;;17.61;73.33
38054;BME280;23859;50.672;7.164;2022-12-31T15:25:36;100179.69;;;17.23;72.72
38054;BME280;23859;50.672;7.164;2022-12-31T15:28:21;100254.06;;;17.51;74.59
38054;BME280;23859;50.672;7.164;2022-12-31T15:30:52;100265.56;;;17.45;73.99
38054;BME280;23859;50.672;7.164;2022-12-31T15:36:20;100275.56;;;17.23;76.48
38054;BME280;23859;50.672;7.164;2022-12-31T15:38:48;100274.66;;;17.44;73.85
38054;BME280;23859;50.672;7.164;2022-12-31T15:43:49;100276.94;;;17.47;74.13
38054;BME280;23859;50.672;7.164;2022-12-31T15:46:21;100274.09;;;17.35;75.12
38054;BME280;23859;50.672;7.164;2022-12-31T15:49:18;100273.38;;;17.26;75.21
38054;BME280;23859;50.672;7.164;2022-12-31T15:52:01;100272.44;;;17.34;74.63
38054;BME280;23859;50.672;7.164;2022-12-31T15:54:39;100265.19;;;17.48;73.95
38054;BME280;23859;50.672;7.164;2022-12-31T15:57:53;100284.38;;;17.45;74.29
38054;BME280;23859;50.672;7.164;2022-12-31T16:00:04;100274.66;;;17.30;75.15
38054;BME280;23859;50.672;7.164;2022-12-31T16:02:31;100284.84;;;17.35;74.71
38054;BME280;23859;50.672;7.164;2022-12-31T16:04:57;100291.03;;;17.49;74.47
38054;BME280;23859;50.672;7.164;2022-12-31T16:07:23;100284.44;;;17.52;74.34
38054;BME280;23859;50.672;7.164;2022-12-31T16:09:54;100279.63;;;17.47;73.98
38054;BME280;23859;50.672;7.164;2022-12-31T16:12:23;100300.59;;;17.37;74.45
38054;BME280;23859;50.672;7.164;2022-12-31T16:14:53;100287.63;;;17.27;74.92
38054;BME280;23859;50.672;7.164;2022-12-31T16:17:40;100295.09;;;17.17;74.71
38054;BME280;23859;50.672;7.164;2022-12-31T16:20:24;100278.53;;;16.99;76.66
38054;BME280;23859;50.672;7.164;2022-12-31T16:22:53;100284.56;;;17.01;76.05
38054;BME280;23859;50.672;7.164;2022-12-31T16:25:22;100287.44;;;17.14;74.99
38054;BME280;23859;50.672;7.164;2022-12-31T16:27:50;100291.94;;;16.99;75.80
38054;BME280;23859;50.672;7.164;2022-12-31T16:32:49;100298.38;;;16.98;75.48
38054;BME280;23859;50.672;7.164;2022-12-31T16:35:22;100301.31;;;17.03;74.97
38054;BME280;23859;50.672;7.164;2022-12-31T16:37:59;100314.09;;;17.01;75.07
38054;BME280;23859;50.672;7.164;2022-12-31T16:40:25;100294.63;;;16.99;74.73
38054;BME280;23859;50.672;7.164;2022-12-31T16:42:51;100289.56;;;17.04;74.12
38054;BME280;23859;50.672;7.164;2022-12-31T16:45:28;100299.16;;;16.84;75.23
38054;BME280;23859;50.672;7.164;2022-12-31T16:48:00;100291.06;;;17.06;73.24
38054;BME280;23859;50.672;7.164;2022-12-31T16:50:30;100296.44;;;17.06;73.48
38054;BME280;23859;50.672;7.164;2022-12-31T16:53:04;100288.06;;;17.01;73.81
38054;BME280;23859;50.672;7.164;2022-12-31T16:55:31;100297.41;;;16.91;74.05
38054;BME280;23859;50.672;7.164;2022-12-31T16:58:21;100296.31;;;17.00;72.87
38054;BME280;23859;50.672;7.164;2022-12-31T17:00:50;100294.34;;;16.94;73.78
38054;BME280;23859;50.672;7.164;2022-12-31T17:03:22;100297.69;;;16.96;72.64
38054;BME280;23859;50.672;7.164;2022-12-31T17:06:03;100299.81;;;16.86;73.69
38054;BME280;23859;50.672;7.164;2022-12-31T17:16:35;100296.22;;;16.42;77.27
38054;BME280;23859;50.672;7.164;2022-12-31T17:19:03;100310.03;;;16.54;76.47
38054;BME280;23859;50.672;7.164;2022-12-31T17:21:30;100301.97;;;16.39;77.62